M I D A S
Marine Information and Data Acquisition System
Tripno 2151 of the Zeeleeuw from 2011-07-26 06:31:55 to 2011-07-26 13:52:39
Back to CruiseResearch ActivitiesStationsMapUnderway DataData graphs

EquipmentUnitsComment
TimeDGPSUTC
LatitudeDGPSDM.mWGS84
LongitudeDGPSDM.mWGS84
HeadingGyrodeg 
SOGDGPSknotsSpeed over ground
COGDGPSdegCourse over ground
DepthEcho soundermeters200 kHz
Missing or incorrect values are displayed as -999
Navigation data collected by the RV Zeeleeuw from 2011-07-26 06:33:15 to 2011-07-26 13:58:13
                                                                                    Next 1000 lines
Time Latitude Longitude Heading SOG COG Depth
2011-07-26 06:33:25 51°13.636 2°56.016 107.9 1.2 286 8.8
2011-07-26 06:33:30 51°13.637 2°56.012 107.6 1.9 290 9
2011-07-26 06:33:35 51°13.638 2°56.008 107.5 2.3 288 9.3
2011-07-26 06:33:40 51°13.639 2°56.002 107.5 2.7 289 -999
2011-07-26 06:33:46 51°13.641 2°55.995 107.5 2.9 287 -999
2011-07-26 06:33:52 51°13.643 2°55.987 107.5 3 288 -999
2011-07-26 06:33:57 51°13.644 2°55.981 106.9 2.9 285 -999
2011-07-26 06:34:03 51°13.645 2°55.973 106.3 2.9 285 -999
2011-07-26 06:34:08 51°13.646 2°55.967 105.9 3 284 -999
2011-07-26 06:34:14 51°13.648 2°55.959 105.9 3.1 285 -999
2011-07-26 06:34:19 51°13.649 2°55.952 106.4 3 284 -999
2011-07-26 06:34:24 51°13.65 2°55.946 107.4 3 284 -999
2011-07-26 06:34:28 51°13.651 2°55.941 108.3 2.9 286 -999
2011-07-26 06:34:34 51°13.651 2°55.934 109 2.9 287 -999
2011-07-26 06:34:39 51°13.652 2°55.928 109.9 3 287 -999
2011-07-26 06:34:44 51°13.653 2°55.922 110.9 2.9 286 -999
2011-07-26 06:34:48 51°13.654 2°55.917 112 2.9 287 -999
2011-07-26 06:34:54 51°13.656 2°55.91 113.1 2.9 290 5
2011-07-26 06:34:59 51°13.657 2°55.903 114 2.9 291 -999
2011-07-26 06:35:04 51°13.659 2°55.897 115.5 2.9 291 -999
2011-07-26 06:35:09 51°13.66 2°55.891 116.8 3 293 -999
2011-07-26 06:35:15 51°13.662 2°55.884 118.1 3 295 -999
2011-07-26 06:35:20 51°13.664 2°55.878 119.1 3 296 -999
2011-07-26 06:35:24 51°13.665 2°55.874 120.6 3 296 -999
2011-07-26 06:35:29 51°13.668 2°55.868 121.8 3 298 -999
2011-07-26 06:35:34 51°13.67 2°55.862 122.7 3 299 -999
2011-07-26 06:35:39 51°13.672 2°55.856 124.1 3.1 302 -999
2011-07-26 06:35:44 51°13.674 2°55.85 125.3 3.2 303 -999
2011-07-26 06:35:49 51°13.677 2°55.844 126.4 3.3 305 -999
2011-07-26 06:35:54 51°13.679 2°55.838 127.3 3.4 306 -999
2011-07-26 06:35:59 51°13.682 2°55.832 128.8 3.5 308 -999
2011-07-26 06:36:04 51°13.686 2°55.826 130 3.6 309 -999
2011-07-26 06:36:09 51°13.689 2°55.82 131.1 3.7 310 -999
2011-07-26 06:36:14 51°13.693 2°55.813 132.1 3.9 312 -999
2011-07-26 06:36:19 51°13.696 2°55.807 133 3.9 312 -999
2011-07-26 06:36:25 51°13.701 2°55.799 133.6 4 314 -999
2011-07-26 06:36:30 51°13.705 2°55.793 134.2 4.1 314 -999
2011-07-26 06:36:34 51°13.708 2°55.787 134.5 4.2 315 -999
2011-07-26 06:36:39 51°13.712 2°55.781 134.7 4.2 314 -999
2011-07-26 06:36:44 51°13.716 2°55.774 134.9 4.3 315 -999
2011-07-26 06:36:49 51°13.721 2°55.767 135.3 4.3 315 -999
2011-07-26 06:36:54 51°13.725 2°55.76 135.8 4.4 315 -999
2011-07-26 06:36:59 51°13.729 2°55.754 136.3 4.3 315 -999
2011-07-26 06:37:04 51°13.734 2°55.747 136.5 4.4 316 -999
2011-07-26 06:37:09 51°13.738 2°55.74 136.9 4.3 314 -999
2011-07-26 06:37:14 51°13.742 2°55.734 136.9 4.1 315 -999
2011-07-26 06:37:19 51°13.745 2°55.727 136.9 4 313 -999
2011-07-26 06:37:24 51°13.749 2°55.721 136.9 3.8 312 -999
2011-07-26 06:37:29 51°13.752 2°55.715 136.9 3.8 313 -999
2011-07-26 06:37:34 51°13.756 2°55.709 137 3.6 313 -999
2011-07-26 06:37:39 51°13.759 2°55.703 138 3.5 313 -999
2011-07-26 06:37:44 51°13.762 2°55.698 139.5 3.4 314 13.5
2011-07-26 06:37:49 51°13.765 2°55.692 141.2 3.4 315 -999
2011-07-26 06:37:54 51°13.769 2°55.687 143.7 3.4 317 -999
2011-07-26 06:37:59 51°13.773 2°55.682 146.7 3.6 320 -999
2011-07-26 06:38:04 51°13.777 2°55.677 149.9 3.9 325 -999
2011-07-26 06:38:09 51°13.782 2°55.673 152.4 3.9 329 -999
2011-07-26 06:38:14 51°13.787 2°55.668 154.9 3.9 330 -999
2011-07-26 06:38:19 51°13.792 2°55.664 157.5 4 334 -999
2011-07-26 06:38:24 51°13.797 2°55.661 159.6 4.1 337 -999
2011-07-26 06:38:29 51°13.802 2°55.658 161.6 4.2 340 -999
2011-07-26 06:38:34 51°13.808 2°55.655 163.5 4.3 342 -999
2011-07-26 06:38:39 51°13.814 2°55.652 164.8 4.3 344 -999
2011-07-26 06:38:44 51°13.82 2°55.65 166.8 4.4 346 -999
2011-07-26 06:38:49 51°13.825 2°55.648 168.1 4.4 348 -999
2011-07-26 06:38:54 51°13.831 2°55.646 169.2 4.3 349 -999
2011-07-26 06:38:59 51°13.837 2°55.644 170 4.2 350 -999
2011-07-26 06:39:04 51°13.842 2°55.643 170.5 4.1 351 -999
2011-07-26 06:39:09 51°13.848 2°55.641 170.8 4.1 352 -999
2011-07-26 06:39:14 51°13.854 2°55.64 171.4 4.1 351 -999
2011-07-26 06:39:19 51°13.859 2°55.639 171.7 4.1 352 -999
2011-07-26 06:39:24 51°13.865 2°55.638 171.9 4 352 -999
2011-07-26 06:39:29 51°13.871 2°55.636 172.4 4 353 -999
2011-07-26 06:39:34 51°13.876 2°55.635 173.1 3.9 353 -999
2011-07-26 06:39:39 51°13.882 2°55.634 174.2 3.9 354 -999
2011-07-26 06:39:44 51°13.887 2°55.634 175.1 3.9 355 -999
2011-07-26 06:39:49 51°13.892 2°55.633 176.9 3.9 357 -999
2011-07-26 06:39:54 51°13.898 2°55.633 178.9 3.9 358 -999
2011-07-26 06:39:59 51°13.903 2°55.633 181.2 3.7 2 -999
2011-07-26 06:40:04 51°13.908 2°55.634 183.7 3.5 4 -999
2011-07-26 06:40:09 51°13.912 2°55.635 185.9 3.4 6 -999
2011-07-26 06:40:14 51°13.917 2°55.636 188.1 3.2 9 -999
2011-07-26 06:40:19 51°13.921 2°55.637 190.1 3 11 -999
2011-07-26 06:40:25 51°13.925 2°55.639 191.6 2.9 13 -999
2011-07-26 06:40:30 51°13.929 2°55.64 193.3 2.8 15 -999
2011-07-26 06:40:34 51°13.932 2°55.642 195 2.7 17 -999
2011-07-26 06:40:39 51°13.935 2°55.643 196.2 2.7 17 -999
2011-07-26 06:40:44 51°13.939 2°55.645 197.1 2.6 19 4.8
2011-07-26 06:40:49 51°13.942 2°55.647 198.1 2.5 19 -999
2011-07-26 06:40:54 51°13.945 2°55.649 198.5 2.2 20 13
2011-07-26 06:40:59 51°13.947 2°55.65 198.7 2 23 4.8
2011-07-26 06:41:04 51°13.949 2°55.651 198.9 1.5 20 -999
2011-07-26 06:41:09 51°13.95 2°55.652 199.4 0.6 33 -999
2011-07-26 06:41:14 51°13.95 2°55.652 200.5 0.1 340 13.3
2011-07-26 06:41:19 51°13.95 2°55.652 203 0.3 185 -999
2011-07-26 06:41:24 51°13.949 2°55.651 206.4 0.6 217 13.3
2011-07-26 06:41:29 51°13.948 2°55.649 210.7 1.2 215 13.3
2011-07-26 06:41:34 51°13.946 2°55.647 214.5 1.7 217 13.3
2011-07-26 06:41:39 51°13.944 2°55.644 220.1 1.8 231 13.3
2011-07-26 06:41:44 51°13.942 2°55.641 226.9 1.9 227 -999
2011-07-26 06:41:49 51°13.941 2°55.637 233.7 2 240 13.2
2011-07-26 06:41:54 51°13.939 2°55.633 238.9 2 236 13.3
2011-07-26 06:41:59 51°13.938 2°55.63 242.9 1.7 245 -999
2011-07-26 06:42:04 51°13.937 2°55.627 247.3 1.4 235 13.2
2011-07-26 06:42:09 51°13.936 2°55.626 250.2 1 236 -999
2011-07-26 06:42:14 51°13.936 2°55.624 252.8 0.7 226 13.3
2011-07-26 06:42:19 51°13.935 2°55.624 255.7 0.4 188 13.3
2011-07-26 06:42:23 51°13.935 2°55.625 258.1 0.5 130 13.3
2011-07-26 06:42:29 51°13.934 2°55.627 260.2 0.9 114 -999
2011-07-26 06:42:34 51°13.934 2°55.63 262.1 1.4 103 13.3
2011-07-26 06:42:39 51°13.933 2°55.633 263.2 1.6 102 13.2
2011-07-26 06:42:44 51°13.933 2°55.637 263.7 1.5 96 -999
2011-07-26 06:42:49 51°13.933 2°55.64 264 1.3 100 -999
2011-07-26 06:42:54 51°13.932 2°55.641 262.9 0.4 120 -999
2011-07-26 06:42:59 51°13.932 2°55.64 262.1 0.7 217 -999
2011-07-26 06:43:04 51°13.931 2°55.637 264.5 1.5 267 -999
2011-07-26 06:43:09 51°13.931 2°55.632 269.4 2.5 264 -999
2011-07-26 06:43:14 51°13.931 2°55.626 277.6 2.8 280 -999
2011-07-26 06:43:19 51°13.933 2°55.619 285.9 2.9 285 -999
2011-07-26 06:43:24 51°13.934 2°55.613 291.4 2.9 289 -999
2011-07-26 06:43:29 51°13.936 2°55.607 297.6 3.1 296 -999
2011-07-26 06:43:34 51°13.938 2°55.601 302 3.3 302 13.3
2011-07-26 06:43:39 51°13.941 2°55.595 306.6 3.5 310 13.4
2011-07-26 06:43:43 51°13.944 2°55.591 311.9 3.8 316 13.2
2011-07-26 06:43:48 51°13.948 2°55.585 318.6 4 322 13.3
2011-07-26 06:43:54 51°13.954 2°55.578 324 4.3 325 13.3
2011-07-26 06:43:59 51°13.96 2°55.573 327.6 4.6 328 13.5
2011-07-26 06:44:03 51°13.964 2°55.569 329.7 4.8 330 13.1
2011-07-26 06:44:08 51°13.97 2°55.563 330.8 5 329 13
2011-07-26 06:44:13 51°13.977 2°55.558 330.9 5.3 330 13
2011-07-26 06:44:18 51°13.983 2°55.552 330.7 5.4 330 13.3
2011-07-26 06:44:23 51°13.99 2°55.546 330.5 5.6 330 13.2
2011-07-26 06:44:27 51°13.996 2°55.541 330.8 5.8 332 13.2
2011-07-26 06:44:32 51°14.003 2°55.534 331.3 6.1 332 13.2
2011-07-26 06:44:37 51°14.011 2°55.528 331.4 6.4 333 13
2011-07-26 06:44:42 51°14.019 2°55.521 331.6 6.6 330 13.2
2011-07-26 06:44:47 51°14.027 2°55.514 331.1 6.7 330 13.2
2011-07-26 06:44:51 51°14.033 2°55.508 330.9 6.9 331 13.2
2011-07-26 06:44:56 51°14.042 2°55.5 330.9 7.1 332 12.9
2011-07-26 06:45:01 51°14.051 2°55.493 332 7.2 333 13.1
2011-07-26 06:45:06 51°14.06 2°55.486 332.7 7.5 332 13.1
2011-07-26 06:45:11 51°14.069 2°55.477 331.8 7.6 330 13.4
2011-07-26 06:45:15 51°14.077 2°55.47 331 7.8 330 13.2
2011-07-26 06:45:21 51°14.088 2°55.46 330.8 8 331 -999
2011-07-26 06:45:26 51°14.099 2°55.452 331.8 8.2 333 13.1
2011-07-26 06:45:31 51°14.109 2°55.443 332.3 8.3 331 13.2
2011-07-26 06:45:35 51°14.117 2°55.435 331.1 8.4 329 13.3
2011-07-26 06:45:40 51°14.127 2°55.426 330.5 8.5 330 13.2
2011-07-26 06:45:45 51°14.137 2°55.417 331 8.5 331 13.2
2011-07-26 06:45:50 51°14.147 2°55.408 332.1 8.5 332 13.1
2011-07-26 06:45:56 51°14.16 2°55.397 332.1 8.6 331 13.2
2011-07-26 06:46:01 51°14.17 2°55.387 331.2 8.6 330 13.2
2011-07-26 06:46:05 51°14.178 2°55.379 331 8.8 330 13.3
2011-07-26 06:46:11 51°14.192 2°55.368 331.8 8.8 331 13.1
2011-07-26 06:46:16 51°14.202 2°55.359 332.4 8.9 332 13.2
2011-07-26 06:46:20 51°14.211 2°55.351 332.5 8.9 331 13.2
2011-07-26 06:46:25 51°14.222 2°55.341 331.6 9 329 13.2
2011-07-26 06:46:31 51°14.234 2°55.329 330.9 9 330 13.1
2011-07-26 06:46:36 51°14.245 2°55.319 330.5 9 330 13.1
2011-07-26 06:46:40 51°14.254 2°55.311 331.1 9 332 13.1
2011-07-26 06:46:46 51°14.267 2°55.3 332.2 9 331 13
2011-07-26 06:46:51 51°14.278 2°55.29 331.8 9 330 12.7
2011-07-26 06:46:56 51°14.289 2°55.28 330.8 9 330 13
2011-07-26 06:47:01 51°14.3 2°55.271 330.6 9 331 -999
2011-07-26 06:47:07 51°14.313 2°55.26 331.4 9 332 -999
2011-07-26 06:47:13 51°14.326 2°55.248 331.8 9 330 -999
2011-07-26 06:47:19 51°14.339 2°55.235 330.5 9.1 328 -999
2011-07-26 06:47:24 51°14.349 2°55.224 329.1 9.1 327 13.2
2011-07-26 06:47:29 51°14.36 2°55.213 328.7 9.2 327 -999
2011-07-26 06:47:34 51°14.371 2°55.201 328.4 9.3 325 12.6
2011-07-26 06:47:39 51°14.382 2°55.189 327.3 9.5 325 -999
2011-07-26 06:47:44 51°14.392 2°55.177 327 9.5 326 -999
2011-07-26 06:47:49 51°14.403 2°55.165 327.2 9.7 325 12.7
2011-07-26 06:47:54 51°14.414 2°55.152 326.8 9.7 324 -999
2011-07-26 06:47:59 51°14.425 2°55.14 326.3 9.6 325 -999
2011-07-26 06:48:04 51°14.436 2°55.128 325.5 9.7 324 -999
2011-07-26 06:48:09 51°14.447 2°55.115 325.6 9.8 327 13.3
2011-07-26 06:48:14 51°14.459 2°55.104 326.5 9.9 328 12.6
2011-07-26 06:48:18 51°14.468 2°55.094 327.4 10.1 326 12.9
2011-07-26 06:48:23 51°14.48 2°55.08 326.5 10.2 325 13.5
2011-07-26 06:48:29 51°14.493 2°55.065 325.1 10.3 324 13.7
2011-07-26 06:48:34 51°14.505 2°55.052 324.7 10.5 326 -999
2011-07-26 06:48:39 51°14.518 2°55.039 325.2 10.5 327 13
2011-07-26 06:48:44 51°14.531 2°55.028 326.6 10.7 331 13.3
2011-07-26 06:48:49 51°14.544 2°55.016 328.1 10.9 332 13.5
2011-07-26 06:48:54 51°14.558 2°55.006 329.3 11 333 13
2011-07-26 06:48:59 51°14.572 2°54.995 329.7 11.1 333 13.1
2011-07-26 06:49:04 51°14.585 2°54.983 329.3 11.1 331 13.2
2011-07-26 06:49:09 51°14.598 2°54.971 327.9 11.1 329 -999
2011-07-26 06:49:14 51°14.611 2°54.958 326.5 11.1 329 -999
2011-07-26 06:49:19 51°14.624 2°54.945 326.3 11.1 329 13.7
2011-07-26 06:49:24 51°14.637 2°54.933 326 11.1 328 13.7
2011-07-26 06:49:29 51°14.651 2°54.92 326 11.1 329 13.2
2011-07-26 06:49:34 51°14.664 2°54.906 325.7 11.1 327 13.3
2011-07-26 06:49:39 51°14.677 2°54.893 324.9 11.1 328 13.2
2011-07-26 06:49:43 51°14.687 2°54.882 324.5 11.2 327 13.4
2011-07-26 06:49:48 51°14.7 2°54.869 324.5 11.2 328 13.1
2011-07-26 06:49:53 51°14.713 2°54.856 324.7 11 328 13.2
2011-07-26 06:49:58 51°14.726 2°54.843 324.8 11 328 13.4
2011-07-26 06:50:03 51°14.739 2°54.83 325.2 11 327 13.5
2011-07-26 06:50:08 51°14.752 2°54.816 324.5 11.1 326 13.1
2011-07-26 06:50:13 51°14.764 2°54.802 323.3 11 325 13.6
2011-07-26 06:50:18 51°14.777 2°54.788 322.5 10.9 325 13.8
2011-07-26 06:50:23 51°14.789 2°54.774 322.4 11.1 324 13.3
2011-07-26 06:50:28 51°14.802 2°54.759 322.4 11.1 323 12.9
2011-07-26 06:50:33 51°14.814 2°54.744 321.2 11.2 322 13.8
2011-07-26 06:50:38 51°14.826 2°54.729 320.6 11.4 324 13.9
2011-07-26 06:50:43 51°14.839 2°54.713 320.8 11.6 322 13.9
2011-07-26 06:50:47 51°14.85 2°54.701 321.2 11.7 325 13.9
2011-07-26 06:50:52 51°14.863 2°54.685 322 11.8 322 13.3
2011-07-26 06:50:57 51°14.876 2°54.669 321.6 11.9 323 13.2
2011-07-26 06:51:02 51°14.889 2°54.653 321.2 12.1 322 -999
2011-07-26 06:51:08 51°14.905 2°54.633 321.2 12.2 324 -999
2011-07-26 06:51:13 51°14.919 2°54.617 321.9 12.1 324 -999
2011-07-26 06:51:19 51°14.936 2°54.6 323.2 12 326 -999
2011-07-26 06:51:24 51°14.95 2°54.585 323.9 12.1 327 -999
2011-07-26 06:51:28 51°14.961 2°54.573 324.8 12.1 327 13.4
2011-07-26 06:51:33 51°14.975 2°54.559 325.5 12.1 327 13.2
2011-07-26 06:51:38 51°14.989 2°54.543 325.8 12 325 12.8
2011-07-26 06:51:43 51°15.002 2°54.527 324.1 12.2 324 12
2011-07-26 06:51:48 51°15.016 2°54.512 322.5 12.1 325 12.5
2011-07-26 06:51:53 51°15.029 2°54.496 322.5 12 324 12.9
2011-07-26 06:51:58 51°15.043 2°54.481 322.7 12.1 325 12.5
2011-07-26 06:52:03 51°15.057 2°54.466 323.1 12.2 325 12.2
2011-07-26 06:52:08 51°15.07 2°54.45 323.2 12.2 325 12.1
2011-07-26 06:52:13 51°15.084 2°54.434 322.8 12.1 325 11.8
2011-07-26 06:52:17 51°15.095 2°54.422 322.7 12.1 325 11.4
2011-07-26 06:52:22 51°15.109 2°54.407 322.9 12.2 326 11.9
2011-07-26 06:52:28 51°15.126 2°54.389 323.7 12.2 326 11.8
2011-07-26 06:52:33 51°15.14 2°54.374 324.3 12.2 327 11.4
2011-07-26 06:52:37 51°15.152 2°54.362 324.8 12.3 327 11.5
2011-07-26 06:52:42 51°15.166 2°54.348 325.1 12.2 327 11.6
2011-07-26 06:52:46 51°15.177 2°54.335 324.8 12.3 325 12.1
2011-07-26 06:52:52 51°15.194 2°54.316 323.1 12.2 324 11.8
2011-07-26 06:52:57 51°15.207 2°54.3 322.3 12.2 323 12.1
2011-07-26 06:53:01 51°15.218 2°54.286 320.6 12.2 322 12.3
2011-07-26 06:53:06 51°15.231 2°54.269 319.7 12.2 320 12.3
2011-07-26 06:53:11 51°15.243 2°54.251 318.7 12.2 319 11.9
2011-07-26 06:53:16 51°15.256 2°54.233 317.5 12.3 319 11.5
2011-07-26 06:53:21 51°15.268 2°54.215 316.5 12.2 318 11.6
2011-07-26 06:53:25 51°15.278 2°54.201 315.8 12 317 12.2
2011-07-26 06:53:31 51°15.293 2°54.179 315.5 12 318 12.7
2011-07-26 06:53:36 51°15.306 2°54.161 316.1 12 318 13
2011-07-26 06:53:41 51°15.318 2°54.144 316.9 12.1 319 13.1
2011-07-26 06:53:45 51°15.328 2°54.13 317.6 12.2 320 13.4
2011-07-26 06:53:51 51°15.344 2°54.109 318.4 12.3 321 13.3
2011-07-26 06:53:56 51°15.357 2°54.093 319.3 12.2 322 13.1
2011-07-26 06:54:01 51°15.371 2°54.076 320 12.3 322 13.5
2011-07-26 06:54:06 51°15.384 2°54.06 320.6 12.3 323 13.4
2011-07-26 06:54:11 51°15.398 2°54.043 321.2 12.3 323 13.6
2011-07-26 06:54:16 51°15.412 2°54.028 321.8 12.3 324 13.6
2011-07-26 06:54:21 51°15.425 2°54.011 321.9 12.2 322 13.6
2011-07-26 06:54:26 51°15.438 2°53.993 319.9 12.1 319 13.7
2011-07-26 06:54:31 51°15.451 2°53.976 318.6 12.2 320 13.6
2011-07-26 06:54:36 51°15.463 2°53.958 317.8 12.1 318 13.3
2011-07-26 06:54:41 51°15.475 2°53.94 316.5 12.1 317 13.1
2011-07-26 06:54:46 51°15.487 2°53.921 315.4 12 316 13.7
2011-07-26 06:54:51 51°15.499 2°53.902 314.5 12 315 13.9
2011-07-26 06:54:56 51°15.511 2°53.883 313.9 12 315 13.7
2011-07-26 06:55:01 51°15.523 2°53.864 313.4 12.1 314 13.8
2011-07-26 06:55:05 51°15.532 2°53.848 312.7 12.1 314 14
2011-07-26 06:55:11 51°15.546 2°53.826 313.2 12.1 315 13.6
2011-07-26 06:55:16 51°15.558 2°53.807 313.6 12.2 316 14.2
2011-07-26 06:55:21 51°15.57 2°53.788 315 12.2 316 13.8
2011-07-26 06:55:25 51°15.58 2°53.774 315.4 11.9 316 14.4
2011-07-26 06:55:31 51°15.594 2°53.752 315.9 12.1 317 14.4
2011-07-26 06:55:36 51°15.606 2°53.734 316.4 11.8 317 13.8
2011-07-26 06:55:41 51°15.619 2°53.717 316.7 11.8 318 14.1
2011-07-26 06:55:45 51°15.629 2°53.703 317.3 12 319 14.3
2011-07-26 06:55:51 51°15.644 2°53.682 318.2 11.9 319 13.7
2011-07-26 06:55:56 51°15.656 2°53.665 318.4 12 319 14.4
2011-07-26 06:56:01 51°15.669 2°53.648 318.8 12 320 14.5
2011-07-26 06:56:06 51°15.682 2°53.631 319.6 12.1 321 14.3
2011-07-26 06:56:11 51°15.695 2°53.615 320.5 12.1 321 13.9
2011-07-26 06:56:16 51°15.708 2°53.598 320.4 12 322 13.8
2011-07-26 06:56:21 51°15.722 2°53.582 320.9 12.2 323 13.9
2011-07-26 06:56:26 51°15.735 2°53.565 321.3 12.2 322 14.1
2011-07-26 06:56:31 51°15.749 2°53.549 320.9 12.2 322 14
2011-07-26 06:56:36 51°15.762 2°53.532 320.9 12.2 321 14.4
2011-07-26 06:56:41 51°15.775 2°53.515 320.2 12.2 320 14.4
2011-07-26 06:56:46 51°15.788 2°53.497 319.5 12.2 321 14.6
2011-07-26 06:56:51 51°15.801 2°53.479 319 12.3 319 14.8
2011-07-26 06:56:56 51°15.813 2°53.462 318.3 12 318 13.9
2011-07-26 06:57:01 51°15.826 2°53.444 316.9 12 318 14.9
2011-07-26 06:57:06 51°15.838 2°53.426 316.7 12.1 318 14.4
2011-07-26 06:57:11 51°15.851 2°53.41 318.5 11.9 322 14.2
2011-07-26 06:57:16 51°15.864 2°53.394 319.9 11.9 322 14.4
2011-07-26 06:57:21 51°15.878 2°53.378 320.8 12 323 14.8
2011-07-26 06:57:25 51°15.889 2°53.366 321.9 12.1 325 14.5
2011-07-26 06:57:31 51°15.906 2°53.347 323.3 12.2 326 14.3
2011-07-26 06:57:36 51°15.919 2°53.332 324 12.1 326 14.6
2011-07-26 06:57:41 51°15.933 2°53.317 324.3 11.9 326 15.6
2011-07-26 06:57:45 51°15.945 2°53.306 325.6 12.1 328 15.4
2011-07-26 06:57:51 51°15.962 2°53.291 327.4 11.9 330 14.3
2011-07-26 06:57:56 51°15.977 2°53.278 329.1 12 333 14.6
2011-07-26 06:58:01 51°15.992 2°53.267 331 12.2 334 14.3
2011-07-26 06:58:06 51°16.007 2°53.256 332 12.3 335 13.7
2011-07-26 06:58:11 51°16.023 2°53.245 333.4 12.1 337 14.5
2011-07-26 06:58:16 51°16.039 2°53.235 334.9 12.2 339 14.3
2011-07-26 06:58:21 51°16.055 2°53.226 336.9 12.3 341 13.7
2011-07-26 06:58:26 51°16.071 2°53.217 338.5 12.4 341 14.4
2011-07-26 06:58:31 51°16.087 2°53.209 339 12.3 342 14.4
2011-07-26 06:58:36 51°16.104 2°53.2 339.5 12.3 342 14.2
2011-07-26 06:58:41 51°16.12 2°53.192 340.4 12.3 343 14.5
2011-07-26 06:58:46 51°16.136 2°53.184 340.1 12.3 342 13.7
2011-07-26 06:58:51 51°16.152 2°53.176 340 12 342 13.5
2011-07-26 06:58:56 51°16.168 2°53.167 338.4 12 340 13.9
2011-07-26 06:59:01 51°16.184 2°53.158 338.3 12.1 341 13.8
2011-07-26 06:59:06 51°16.199 2°53.148 337.1 11.7 338 14.9
2011-07-26 06:59:11 51°16.214 2°53.138 336.6 11.9 338 14.7
2011-07-26 06:59:16 51°16.23 2°53.128 336 12 338 14.5
2011-07-26 06:59:21 51°16.245 2°53.119 336 12 339 14.4
2011-07-26 06:59:25 51°16.258 2°53.112 336.8 12 340 14.3
2011-07-26 06:59:31 51°16.277 2°53.1 337 12.1 340 14.2
2011-07-26 06:59:36 51°16.293 2°53.091 337.1 12.3 339 14.4
2011-07-26 06:59:41 51°16.309 2°53.081 336.9 12.3 339 14.2
2011-07-26 06:59:45 51°16.321 2°53.073 336.6 12.3 338 14.1
2011-07-26 06:59:51 51°16.341 2°53.061 336.3 12.3 338 14.3
2011-07-26 06:59:56 51°16.356 2°53.051 336.3 12.4 338 14
2011-07-26 07:00:01 51°16.372 2°53.041 336.4 12.4 338 13.8
2011-07-26 07:00:06 51°16.388 2°53.031 336.4 12.3 339 13.7
2011-07-26 07:00:11 51°16.404 2°53.021 336.4 12.3 338 13.7
2011-07-26 07:00:16 51°16.419 2°53.01 335.9 12.3 337 14.6
2011-07-26 07:00:21 51°16.435 2°52.999 335.4 12.2 337 13.9
2011-07-26 07:00:26 51°16.45 2°52.988 334.3 12 335 13.7
2011-07-26 07:00:31 51°16.465 2°52.977 333.2 12 334 13.9
2011-07-26 07:00:36 51°16.48 2°52.965 332.1 12 334 14.3
2011-07-26 07:00:41 51°16.495 2°52.953 331.9 12.1 334 14.2
2011-07-26 07:00:46 51°16.51 2°52.94 331.4 12.2 333 14
2011-07-26 07:00:51 51°16.525 2°52.929 331.5 12.2 334 13.6
2011-07-26 07:00:56 51°16.54 2°52.916 331.8 12.2 333 13.7
2011-07-26 07:01:01 51°16.556 2°52.904 332.4 12.4 334 13.4
2011-07-26 07:01:06 51°16.571 2°52.893 332.5 12.3 334 13
2011-07-26 07:01:11 51°16.586 2°52.881 332.1 12 334 13.7
2011-07-26 07:01:16 51°16.601 2°52.871 333.4 12 337 14.1
2011-07-26 07:01:21 51°16.617 2°52.861 335.8 12.1 338 13.9
2011-07-26 07:01:26 51°16.632 2°52.851 336.7 12 338 13.1
2011-07-26 07:01:31 51°16.648 2°52.842 337.6 12.1 339 13.2
2011-07-26 07:01:36 51°16.664 2°52.833 338.3 12.1 340 13
2011-07-26 07:01:41 51°16.68 2°52.824 338.8 12.1 340 13.4
2011-07-26 07:01:46 51°16.696 2°52.815 339 12.2 340 12.9
2011-07-26 07:01:51 51°16.712 2°52.806 339.2 12.3 341 12.5
2011-07-26 07:01:56 51°16.728 2°52.797 339.5 12.3 342 12.5
2011-07-26 07:02:01 51°16.744 2°52.79 340.5 12.3 343 12.2
2011-07-26 07:02:06 51°16.761 2°52.782 341.1 12.4 343 11.8
2011-07-26 07:02:11 51°16.776 2°52.773 341.1 12.1 343 11.3
2011-07-26 07:02:16 51°16.792 2°52.765 340.6 12.1 342 11.8
2011-07-26 07:02:21 51°16.809 2°52.757 340.6 12.2 343 11.8
2011-07-26 07:02:26 51°16.824 2°52.749 340.6 12.1 342 11.7
2011-07-26 07:02:31 51°16.841 2°52.741 340.8 12.2 342 12
2011-07-26 07:02:36 51°16.857 2°52.732 340.5 12.2 341 11.6
2011-07-26 07:02:41 51°16.873 2°52.724 340.4 12.3 342 11.4
2011-07-26 07:02:46 51°16.889 2°52.716 340.3 12.2 342 11.2
2011-07-26 07:02:51 51°16.905 2°52.707 340.7 12.2 343 11.9
2011-07-26 07:02:56 51°16.921 2°52.698 340.8 12.2 342 11.6
2011-07-26 07:03:01 51°16.936 2°52.691 340.5 12 343 11.6
2011-07-26 07:03:06 51°16.952 2°52.682 340.3 11.9 342 12.4
2011-07-26 07:03:11 51°16.968 2°52.673 339.6 12.1 341 12.2
2011-07-26 07:03:16 51°16.984 2°52.664 338.8 12 340 11.7
2011-07-26 07:03:21 51°17 2°52.656 339.2 11.9 342 12.6
2011-07-26 07:03:26 51°17.016 2°52.649 340.6 12 344 12.4
2011-07-26 07:03:31 51°17.033 2°52.642 341.6 12.2 345 12.1
2011-07-26 07:03:36 51°17.049 2°52.635 342.6 12.2 345 11.9
2011-07-26 07:03:41 51°17.065 2°52.63 344.1 12.3 348 12
2011-07-26 07:03:45 51°17.079 2°52.626 345.8 12.4 349 11.9
2011-07-26 07:03:51 51°17.099 2°52.62 347.2 12.4 350 11
2011-07-26 07:03:56 51°17.115 2°52.616 348.4 12.1 350 11.4
2011-07-26 07:04:01 51°17.132 2°52.612 348.7 12.1 351 11.7
2011-07-26 07:04:06 51°17.149 2°52.608 349.6 12.1 352 12
2011-07-26 07:04:11 51°17.166 2°52.605 350.9 12.3 353 12
2011-07-26 07:04:16 51°17.183 2°52.601 350.9 12.4 352 12.1
2011-07-26 07:04:21 51°17.2 2°52.598 351.1 12.3 354 12
2011-07-26 07:04:26 51°17.217 2°52.596 352 12.4 354 12
2011-07-26 07:04:31 51°17.234 2°52.593 352.1 12.4 354 12
2011-07-26 07:04:36 51°17.251 2°52.589 352.1 12.4 354 12.2
2011-07-26 07:04:41 51°17.268 2°52.587 352.2 12.4 354 11.7
2011-07-26 07:04:46 51°17.285 2°52.584 352 12.2 354 12.4
2011-07-26 07:04:51 51°17.302 2°52.581 351.8 12.2 354 12.4
2011-07-26 07:04:56 51°17.319 2°52.578 351.7 12.3 353 12.5
2011-07-26 07:05:01 51°17.336 2°52.574 351.6 12.4 353 12.3
2011-07-26 07:05:06 51°17.353 2°52.571 351.3 12.4 353 11.8
2011-07-26 07:05:11 51°17.37 2°52.567 350.8 12.2 353 11.7
2011-07-26 07:05:16 51°17.386 2°52.564 350.7 12.2 353 12.4
2011-07-26 07:05:21 51°17.403 2°52.56 350.9 12.2 353 12.6
2011-07-26 07:05:25 51°17.417 2°52.559 351.7 12.1 354 12.8
2011-07-26 07:05:31 51°17.437 2°52.554 352.1 12.3 353 12.6
2011-07-26 07:05:36 51°17.454 2°52.552 352.1 12.2 355 12.2
2011-07-26 07:05:41 51°17.471 2°52.55 353.1 12.3 356 12.7
2011-07-26 07:05:45 51°17.485 2°52.549 354 12.3 356 12.4
2011-07-26 07:05:51 51°17.505 2°52.547 354.5 12.4 357 12.5
2011-07-26 07:05:56 51°17.523 2°52.546 355 12.4 358 12.5
2011-07-26 07:06:01 51°17.54 2°52.545 355.7 12.5 358 12.7
2011-07-26 07:06:06 51°17.557 2°52.544 356.4 12.5 358 12.3
2011-07-26 07:06:11 51°17.574 2°52.544 357.1 12.6 359 12
2011-07-26 07:06:16 51°17.592 2°52.543 357.1 12.4 359 12.6
2011-07-26 07:06:21 51°17.609 2°52.542 356.6 12.4 358 12.6
2011-07-26 07:06:26 51°17.626 2°52.541 356.3 12.4 358 12.5
2011-07-26 07:06:31 51°17.644 2°52.539 355.8 12.5 357 12.6
2011-07-26 07:06:36 51°17.661 2°52.538 355.5 12.6 357 12.5
2011-07-26 07:06:41 51°17.678 2°52.537 355.7 12.6 358 12.4
2011-07-26 07:06:46 51°17.696 2°52.537 357 12.5 -999 12.6
2011-07-26 07:06:51 51°17.713 2°52.537 357.9 12.5 -999 12
2011-07-26 07:06:56 51°17.73 2°52.538 359.3 12.3 2 12.7
2011-07-26 07:07:01 51°17.747 2°52.539 0.4 12.3 3 12.6
2011-07-26 07:07:06 51°17.765 2°52.541 1.1 12.3 3 12.6
2011-07-26 07:07:11 51°17.782 2°52.543 1.6 12.3 3 12.8
2011-07-26 07:07:16 51°17.799 2°52.545 1.5 12.4 3 12.7
2011-07-26 07:07:21 51°17.817 2°52.546 1.4 12.5 3 12.3
2011-07-26 07:07:26 51°17.834 2°52.548 1 12.5 3 12.4
2011-07-26 07:07:31 51°17.852 2°52.548 0.2 12.6 1 12.5
2011-07-26 07:07:36 51°17.869 2°52.548 359.2 12.6 1 12.6
2011-07-26 07:07:41 51°17.887 2°52.548 358.3 12.6 -999 12.8
2011-07-26 07:07:45 51°17.901 2°52.548 357.8 12.6 359 12.3
2011-07-26 07:07:51 51°17.922 2°52.548 357.8 12.5 -999 12.3
2011-07-26 07:07:56 51°17.938 2°52.546 356.8 12.5 358 13
2011-07-26 07:08:01 51°17.955 2°52.546 356.9 12.4 359 12.8
2011-07-26 07:08:06 51°17.973 2°52.544 356.7 12.4 357 12.4
2011-07-26 07:08:11 51°17.99 2°52.544 356.4 12.3 359 12.6
2011-07-26 07:08:16 51°18.007 2°52.544 357.1 12.3 -999 12.9
2011-07-26 07:08:21 51°18.024 2°52.543 357.9 12.2 -999 13.3
2011-07-26 07:08:25 51°18.037 2°52.544 358.6 12.3 2 12.5
2011-07-26 07:08:31 51°18.057 2°52.545 359.6 12.3 2 12.8
2011-07-26 07:08:36 51°18.075 2°52.546 0.5 12.5 4 13.5
2011-07-26 07:08:41 51°18.092 2°52.548 0.8 12.4 2 13
2011-07-26 07:08:45 51°18.105 2°52.55 1.2 12.4 4 12.9
2011-07-26 07:08:51 51°18.126 2°52.552 1.7 12.4 3 12.9
2011-07-26 07:08:56 51°18.143 2°52.553 1.5 12.4 4 13.5
2011-07-26 07:09:01 51°18.16 2°52.555 1.5 12.2 4 13.7
2011-07-26 07:09:05 51°18.173 2°52.556 1.3 12.2 4 12.9
2011-07-26 07:09:11 51°18.194 2°52.558 1.4 12.3 3 12.9
2011-07-26 07:09:16 51°18.211 2°52.559 1 12.3 3 12.9
2011-07-26 07:09:21 51°18.228 2°52.561 1.5 12.4 4 12.6
2011-07-26 07:09:25 51°18.242 2°52.561 1 12.3 1 13
2011-07-26 07:09:31 51°18.262 2°52.563 0.3 12.3 3 13.7
2011-07-26 07:09:36 51°18.279 2°52.563 0.1 12.3 1 13.1
2011-07-26 07:09:41 51°18.296 2°52.565 0.1 12.3 2 13.1
2011-07-26 07:09:45 51°18.31 2°52.565 0.3 12.4 2 13.3
2011-07-26 07:09:51 51°18.331 2°52.567 0.1 12.5 3 13.2
2011-07-26 07:09:56 51°18.348 2°52.568 0.5 12.3 3 13
2011-07-26 07:10:01 51°18.365 2°52.57 0.8 12.2 4 13.3
2011-07-26 07:10:06 51°18.382 2°52.571 1.5 12.2 3 13.9
2011-07-26 07:10:11 51°18.399 2°52.572 1.2 12.3 2 13.4
2011-07-26 07:10:16 51°18.417 2°52.573 0.6 12.4 1 13.4
2011-07-26 07:10:21 51°18.434 2°52.573 359.4 12.4 1 13.3
2011-07-26 07:10:26 51°18.451 2°52.573 358.5 12.3 -999 13.2
2011-07-26 07:10:31 51°18.468 2°52.572 358.1 12.2 359 13.9
2011-07-26 07:10:36 51°18.485 2°52.572 357.2 12.3 359 13.8
2011-07-26 07:10:41 51°18.502 2°52.571 357.1 12.3 -999 13.7
2011-07-26 07:10:46 51°18.519 2°52.571 357 12.4 359 13.3
2011-07-26 07:10:51 51°18.537 2°52.571 357.2 12.5 359 13.1
2011-07-26 07:10:56 51°18.554 2°52.57 356.8 12.4 358 13.5
2011-07-26 07:11:01 51°18.571 2°52.569 356.5 12.3 358 13.5
2011-07-26 07:11:06 51°18.588 2°52.568 356.4 12.2 358 14.3
2011-07-26 07:11:11 51°18.605 2°52.567 356.6 12.3 358 14.1
2011-07-26 07:11:16 51°18.622 2°52.567 356.9 12.1 359 13.2
2011-07-26 07:11:21 51°18.639 2°52.567 357.7 12.2 -999 13.4
2011-07-26 07:11:25 51°18.652 2°52.567 358 12.2 -999 13.9
2011-07-26 07:11:31 51°18.672 2°52.567 358.5 12.3 1 13.7
2011-07-26 07:11:36 51°18.689 2°52.568 359 12.1 1 13.1
2011-07-26 07:11:41 51°18.706 2°52.568 359.3 12 1 14
2011-07-26 07:11:45 51°18.719 2°52.568 359.4 12.1 1 14.2
2011-07-26 07:11:51 51°18.74 2°52.569 359.2 12.1 1 14.3
2011-07-26 07:11:56 51°18.757 2°52.57 359.5 12.3 2 14.1
2011-07-26 07:12:01 51°18.774 2°52.571 0.1 12.3 2 13.9
2011-07-26 07:12:05 51°18.787 2°52.572 0.5 12.4 2 14
2011-07-26 07:12:11 51°18.808 2°52.573 0.6 12.5 2 14.2
2011-07-26 07:12:16 51°18.825 2°52.574 0.8 12.6 3 14.5
2011-07-26 07:12:21 51°18.843 2°52.576 1.5 12.5 4 14.7
2011-07-26 07:12:26 51°18.86 2°52.578 1.7 12.5 3 14.8
2011-07-26 07:12:31 51°18.878 2°52.579 1.8 12.5 3 14.5
2011-07-26 07:12:36 51°18.895 2°52.581 1.5 12.6 4 14.8
2011-07-26 07:12:41 51°18.912 2°52.582 1.7 12.5 3 13.9
2011-07-26 07:12:45 51°18.926 2°52.584 1.7 12.4 3 14.7
2011-07-26 07:12:51 51°18.947 2°52.584 1.4 12.4 2 14.5
2011-07-26 07:12:56 51°18.964 2°52.585 0.2 12.3 1 14.8
2011-07-26 07:13:01 51°18.981 2°52.585 359.5 12.4 1 14.7
2011-07-26 07:13:06 51°18.999 2°52.586 359.5 12.5 1 14.9
2011-07-26 07:13:11 51°19.016 2°52.586 359.4 12.5 -999 14.6
2011-07-26 07:13:16 51°19.033 2°52.586 359.1 12.5 -999 14.7
2011-07-26 07:13:21 51°19.051 2°52.586 359 12.4 -999 15.5
2011-07-26 07:13:25 51°19.064 2°52.586 358.6 12.5 359 15.1
2011-07-26 07:13:31 51°19.085 2°52.585 357.9 12.4 358 15
2011-07-26 07:13:36 51°19.102 2°52.584 357.4 12.3 358 14.9
2011-07-26 07:13:41 51°19.119 2°52.583 356.8 12.4 358 15.3
2011-07-26 07:13:45 51°19.133 2°52.583 356.5 12.4 358 15.5
2011-07-26 07:13:51 51°19.154 2°52.582 356.7 12.5 359 15.5
2011-07-26 07:13:56 51°19.171 2°52.581 357.2 12.4 358 15.7
2011-07-26 07:14:01 51°19.188 2°52.58 357.4 12.4 358 15.5
2011-07-26 07:14:05 51°19.202 2°52.58 357.5 12.5 359 15.7
2011-07-26 07:14:11 51°19.223 2°52.579 358 12.6 -999 15.9
2011-07-26 07:14:16 51°19.24 2°52.579 358.8 12.5 -999 15.6
2011-07-26 07:14:21 51°19.257 2°52.579 358.9 12.2 -999 16.8
2011-07-26 07:14:25 51°19.271 2°52.58 359.3 12.3 -999 16
2011-07-26 07:14:31 51°19.291 2°52.58 359.6 12.4 1 16.2
2011-07-26 07:14:36 51°19.308 2°52.581 0.1 12.4 2 16.3
2011-07-26 07:14:41 51°19.326 2°52.582 0.5 12.5 2 16.1
2011-07-26 07:14:46 51°19.343 2°52.583 1 12.3 2 15.8
2011-07-26 07:14:51 51°19.36 2°52.584 1.2 12.1 3 17.1
2011-07-26 07:14:56 51°19.376 2°52.586 1.3 12.2 3 16.7
2011-07-26 07:15:01 51°19.393 2°52.587 1.6 12.1 2 16.4
2011-07-26 07:15:05 51°19.407 2°52.587 1.5 12.3 2 16.3
2011-07-26 07:15:11 51°19.427 2°52.589 0.9 12.2 2 16.8
2011-07-26 07:15:16 51°19.443 2°52.59 0.8 12.1 2 16.5
2011-07-26 07:15:21 51°19.46 2°52.59 0.7 12 1 17.2
2011-07-26 07:15:25 51°19.474 2°52.591 0.8 12 2 18.1
2011-07-26 07:15:31 51°19.494 2°52.592 0.6 12.2 2 17
2011-07-26 07:15:36 51°19.511 2°52.592 0.4 12 1 17.6
2011-07-26 07:15:41 51°19.528 2°52.592 0.1 12.1 1 17
2011-07-26 07:15:45 51°19.541 2°52.593 0.1 12.2 1 17
2011-07-26 07:15:51 51°19.561 2°52.593 0.2 12.2 -999 17
2011-07-26 07:15:56 51°19.578 2°52.593 359.7 12.3 359 17.2
2011-07-26 07:16:01 51°19.595 2°52.593 358.9 12.4 359 17.2
2011-07-26 07:16:05 51°19.609 2°52.592 358.6 12.3 359 17.7
2011-07-26 07:16:11 51°19.63 2°52.591 357.9 12.4 358 17.4
2011-07-26 07:16:16 51°19.647 2°52.59 357.3 12.5 358 17.4
2011-07-26 07:16:21 51°19.664 2°52.589 357 12.5 357 16.9
2011-07-26 07:16:25 51°19.678 2°52.588 356.6 12.5 358 17.1
2011-07-26 07:16:31 51°19.698 2°52.587 356.9 12.3 358 17.3
2011-07-26 07:16:36 51°19.716 2°52.586 357.4 12.2 359 17.9
2011-07-26 07:16:41 51°19.733 2°52.585 357.7 12.3 359 17.9
2011-07-26 07:16:45 51°19.746 2°52.585 357.9 12.4 359 17.7
2011-07-26 07:16:51 51°19.767 2°52.584 357.9 12.4 358 17.5
2011-07-26 07:16:56 51°19.784 2°52.584 358 12.4 359 18.3
2011-07-26 07:17:01 51°19.801 2°52.583 358.6 12.3 359 17.2
2011-07-26 07:17:06 51°19.818 2°52.583 358.9 12.2 -999 17.7
2011-07-26 07:17:11 51°19.835 2°52.583 359.7 12.2 -999 18.3
2011-07-26 07:17:16 51°19.852 2°52.584 0.3 12 -999 18.2
2011-07-26 07:17:21 51°19.869 2°52.584 0.8 12.2 1 18.1
2011-07-26 07:17:25 51°19.883 2°52.585 0.8 12.4 2 17.5
2011-07-26 07:17:31 51°19.903 2°52.586 1 12.2 1 18.4
2011-07-26 07:17:36 51°19.92 2°52.587 1.3 12.1 2 18.5
2011-07-26 07:17:41 51°19.937 2°52.587 1.5 12.3 1 18.3
2011-07-26 07:17:45 51°19.951 2°52.588 0.8 12.3 2 17.5
2011-07-26 07:17:51 51°19.97 2°52.589 1.1 12.1 2 18.1
2011-07-26 07:17:56 51°19.987 2°52.59 1.3 12.1 1 18.5
2011-07-26 07:18:01 51°20.004 2°52.591 0.8 12.1 2 18.9
2011-07-26 07:18:05 51°20.018 2°52.591 0.8 12.3 2 18
2011-07-26 07:18:11 51°20.038 2°52.592 1.2 12.3 2 17.6
2011-07-26 07:18:16 51°20.055 2°52.592 1 12.2 1 18.4
2011-07-26 07:18:21 51°20.072 2°52.592 0.2 12.4 -999 18.1
2011-07-26 07:18:25 51°20.086 2°52.592 359.8 12.4 -999 18.4
2011-07-26 07:18:31 51°20.107 2°52.592 359.9 12.5 359 18.3
2011-07-26 07:18:36 51°20.124 2°52.592 359.4 12.6 -999 18.4
2011-07-26 07:18:41 51°20.141 2°52.591 359 12.5 359 18.5
2011-07-26 07:18:45 51°20.155 2°52.59 358.4 12.5 358 18.1
2011-07-26 07:18:51 51°20.176 2°52.589 357.2 12.4 357 18.4
2011-07-26 07:18:56 51°20.193 2°52.587 357.2 12.4 357 18.4
2011-07-26 07:19:01 51°20.211 2°52.586 356.9 12.5 356 18.4
2011-07-26 07:19:05 51°20.224 2°52.584 356.3 12.5 357 17.8
2011-07-26 07:19:11 51°20.245 2°52.583 356.3 12.4 357 18.5
2011-07-26 07:19:16 51°20.262 2°52.581 356.7 12.4 357 18.8
2011-07-26 07:19:21 51°20.279 2°52.58 356.7 12.3 357 19
2011-07-26 07:19:25 51°20.293 2°52.579 357.3 12.3 358 18.2
2011-07-26 07:19:31 51°20.313 2°52.578 357.2 12.3 357 18.1
2011-07-26 07:19:36 51°20.33 2°52.577 357.2 12.3 358 18.3
2011-07-26 07:19:41 51°20.348 2°52.576 357.5 12.3 358 18.4
2011-07-26 07:19:45 51°20.361 2°52.576 357.9 12.5 358 18.1
2011-07-26 07:19:51 51°20.382 2°52.575 357.9 12.6 359 18.4
2011-07-26 07:19:56 51°20.4 2°52.574 358.1 12.5 359 17.9
2011-07-26 07:20:01 51°20.417 2°52.574 358.6 12.4 359 18.1
2011-07-26 07:20:05 51°20.431 2°52.573 358.6 12.6 359 18.1
2011-07-26 07:20:11 51°20.452 2°52.573 358.8 12.5 -999 17.5
2011-07-26 07:20:16 51°20.469 2°52.573 359.4 12.4 -999 17.8
2011-07-26 07:20:21 51°20.486 2°52.574 0.5 12.2 2 18.7
2011-07-26 07:20:25 51°20.499 2°52.574 1.1 12.1 2 18.8
2011-07-26 07:20:31 51°20.52 2°52.576 1.8 12.1 2 18.6
2011-07-26 07:20:36 51°20.536 2°52.577 1.5 11.9 2 17.2
2011-07-26 07:20:41 51°20.553 2°52.577 1.1 12.1 2 16.8
2011-07-26 07:20:46 51°20.569 2°52.578 1.3 12 2 17.7
2011-07-26 07:20:51 51°20.586 2°52.579 1.5 12.3 2 18.2
2011-07-26 07:20:56 51°20.603 2°52.58 1.6 12.2 1 17.5
2011-07-26 07:21:01 51°20.62 2°52.581 1.5 12.2 2 18
2011-07-26 07:21:06 51°20.637 2°52.581 1.3 12.1 1 18.3
2011-07-26 07:21:11 51°20.654 2°52.582 1.4 12.2 2 17.1
2011-07-26 07:21:16 51°20.671 2°52.583 1.2 12.3 1 17.4
2011-07-26 07:21:21 51°20.688 2°52.583 0.8 12.3 1 17.3
2011-07-26 07:21:26 51°20.705 2°52.584 0.4 12.4 1 17.3
2011-07-26 07:21:31 51°20.723 2°52.583 0.3 12.5 359 17.4
2011-07-26 07:21:36 51°20.74 2°52.583 359.6 12.5 -999 17.5
2011-07-26 07:21:41 51°20.757 2°52.583 359.3 12.4 359 17.6
2011-07-26 07:21:46 51°20.775 2°52.582 358.8 12.4 359 16.9
2011-07-26 07:21:51 51°20.791 2°52.581 357.9 12.1 358 16.4
2011-07-26 07:21:56 51°20.808 2°52.58 357.2 12 358 16.6
2011-07-26 07:22:01 51°20.825 2°52.579 357.3 12.1 359 16.9
2011-07-26 07:22:06 51°20.842 2°52.578 357.5 12.2 357 16.6
2011-07-26 07:22:11 51°20.859 2°52.577 357.4 12.2 358 17.1
2011-07-26 07:22:16 51°20.876 2°52.576 357.1 12.3 357 16.9
2011-07-26 07:22:21 51°20.893 2°52.575 357.2 12.3 358 16.8
2011-07-26 07:22:25 51°20.907 2°52.574 357.6 12.4 359 17.1
2011-07-26 07:22:31 51°20.927 2°52.574 358.4 12.3 359 16.9
2011-07-26 07:22:36 51°20.944 2°52.574 358.8 12.3 -999 17.4
2011-07-26 07:22:41 51°20.962 2°52.575 359.9 12.1 2 17.6
2011-07-26 07:22:45 51°20.975 2°52.575 0.4 12.3 1 17.7
2011-07-26 07:22:51 51°20.995 2°52.576 0.3 12.2 1 16.7
2011-07-26 07:22:56 51°21.012 2°52.577 0.4 12 2 16.6
2011-07-26 07:23:01 51°21.029 2°52.578 0.8 12 2 17.4
2011-07-26 07:23:05 51°21.042 2°52.578 1.2 11.9 2 18
2011-07-26 07:23:11 51°21.063 2°52.58 1.4 12.2 2 17.8
2011-07-26 07:23:16 51°21.079 2°52.581 1.2 12.2 2 17.7
2011-07-26 07:23:21 51°21.096 2°52.581 1.2 12.3 2 16.9
2011-07-26 07:23:25 51°21.11 2°52.582 0.8 12.3 1 16.8
2011-07-26 07:23:31 51°21.13 2°52.583 1.1 12.3 2 17.1
2011-07-26 07:23:36 51°21.147 2°52.583 0.7 12.1 1 17.2
2011-07-26 07:23:41 51°21.164 2°52.583 0.4 12.2 1 17.5
2011-07-26 07:23:45 51°21.177 2°52.583 0.3 12.2 -999 18
2011-07-26 07:23:51 51°21.198 2°52.584 -999 12.3 -999 17.7
2011-07-26 07:23:56 51°21.215 2°52.584 359.6 12.3 -999 18
2011-07-26 07:24:01 51°21.232 2°52.583 359.1 12.3 359 18.7
2011-07-26 07:24:05 51°21.246 2°52.582 358.4 12.3 359 18.2
2011-07-26 07:24:11 51°21.266 2°52.581 357.3 12.1 357 17.9
2011-07-26 07:24:16 51°21.283 2°52.579 356.6 12.2 357 18
2011-07-26 07:24:21 51°21.3 2°52.578 356.5 12.3 357 18.1
2011-07-26 07:24:25 51°21.313 2°52.577 356.6 12.4 357 17.8
2011-07-26 07:24:31 51°21.334 2°52.575 356.7 12.3 358 18.1
2011-07-26 07:24:36 51°21.351 2°52.574 356.9 12.4 358 18.7
2011-07-26 07:24:41 51°21.369 2°52.574 357.5 12.5 358 18.8
2011-07-26 07:24:45 51°21.382 2°52.573 357.9 12.6 359 18.9
2011-07-26 07:24:51 51°21.403 2°52.572 357.8 12.5 358 19.3
2011-07-26 07:24:56 51°21.42 2°52.571 357.9 12.7 358 19.5
2011-07-26 07:25:01 51°21.438 2°52.571 357.8 12.6 358 19.1
2011-07-26 07:25:05 51°21.452 2°52.57 358 12.6 359 19.1
2011-07-26 07:25:11 51°21.473 2°52.57 358.3 12.5 359 19.9
2011-07-26 07:25:16 51°21.49 2°52.569 358.6 12.5 359 19.9
2011-07-26 07:25:21 51°21.508 2°52.569 359 12.6 -999 19.9
2011-07-26 07:25:25 51°21.522 2°52.569 359.4 12.6 -999 20.1
2011-07-26 07:25:31 51°21.542 2°52.569 359.6 12.6 1 20.2
2011-07-26 07:25:36 51°21.56 2°52.57 359.8 12.5 1 20.2
2011-07-26 07:25:41 51°21.577 2°52.571 0.5 12.3 2 21.4
2011-07-26 07:25:45 51°21.591 2°52.571 0.8 12.4 1 21.3
2011-07-26 07:25:51 51°21.612 2°52.572 1.1 12.5 2 21.4
2011-07-26 07:25:56 51°21.629 2°52.574 1.4 12.5 3 21
2011-07-26 07:26:01 51°21.646 2°52.575 1.7 12.5 2 21.2
2011-07-26 07:26:05 51°21.66 2°52.575 1.5 12.4 2 21.8
2011-07-26 07:26:11 51°21.681 2°52.577 1.4 12.5 2 22.4
2011-07-26 07:26:16 51°21.698 2°52.577 1.1 12.5 1 22.1
2011-07-26 07:26:21 51°21.715 2°52.578 0.4 12.4 1 23.1
2011-07-26 07:26:26 51°21.733 2°52.578 0.4 12.4 -999 23.1
2011-07-26 07:26:31 51°21.75 2°52.578 359.7 12.3 -999 22.9
2011-07-26 07:26:36 51°21.767 2°52.578 359.4 12.4 -999 22.6
2011-07-26 07:26:41 51°21.785 2°52.578 359.2 12.6 -999 23.4
2011-07-26 07:26:45 51°21.798 2°52.578 359.2 12.5 359 23.5
2011-07-26 07:26:51 51°21.819 2°52.578 359.1 12.4 -999 23.3
2011-07-26 07:26:56 51°21.836 2°52.577 358.8 12.4 359 23.9
2011-07-26 07:27:01 51°21.853 2°52.577 358.9 12.5 -999 24
2011-07-26 07:27:05 51°21.867 2°52.577 358.8 12.5 359 24.3
2011-07-26 07:27:11 51°21.887 2°52.576 358.6 12.3 359 25
2011-07-26 07:27:16 51°21.905 2°52.575 358.1 12.4 358 25.4
2011-07-26 07:27:21 51°21.922 2°52.574 357.4 12.4 358 25.2
2011-07-26 07:27:25 51°21.936 2°52.573 357.3 12.4 358 25.2
2011-07-26 07:27:31 51°21.957 2°52.572 357.4 12.5 358 25
2011-07-26 07:27:36 51°21.975 2°52.571 357.3 12.5 358 26
2011-07-26 07:27:41 51°21.992 2°52.569 357.3 12.5 357 25.7
2011-07-26 07:27:45 51°22.006 2°52.568 356.9 12.6 357 25.1
2011-07-26 07:27:51 51°22.026 2°52.567 356.8 12.4 358 25.7
2011-07-26 07:27:56 51°22.043 2°52.566 357.1 12.4 358 25.7
2011-07-26 07:28:01 51°22.061 2°52.565 358.1 12.5 359 25.7
2011-07-26 07:28:05 51°22.075 2°52.566 359 12.6 -999 25.2
2011-07-26 07:28:11 51°22.095 2°52.566 0.2 12.6 1 25.5
2011-07-26 07:28:16 51°22.113 2°52.567 0.3 12.5 1 26
2011-07-26 07:28:21 51°22.13 2°52.568 0.8 12.5 2 26.4
2011-07-26 07:28:25 51°22.144 2°52.569 1.4 12.5 2 25.7
2011-07-26 07:28:31 51°22.164 2°52.57 1.4 12.4 1 25.8
2011-07-26 07:28:36 51°22.181 2°52.57 1.3 12.4 2 25.8
2011-07-26 07:28:41 51°22.199 2°52.571 1.4 12.4 2 26.3
2011-07-26 07:28:45 51°22.213 2°52.572 1.5 12.5 2 25.6
2011-07-26 07:28:51 51°22.233 2°52.573 1.6 12.5 2 25.7
2011-07-26 07:28:56 51°22.251 2°52.574 1.5 12.5 2 26.1
2011-07-26 07:29:01 51°22.269 2°52.575 0.9 12.4 1 26.8
2011-07-26 07:29:05 51°22.282 2°52.575 0.1 12.4 1 27
2011-07-26 07:29:11 51°22.303 2°52.575 359.9 12.3 -999 26.1
2011-07-26 07:29:16 51°22.32 2°52.575 359.8 12.3 -999 25.6
2011-07-26 07:29:21 51°22.336 2°52.574 359.3 12.2 359 25.2
2011-07-26 07:29:25 51°22.349 2°52.574 358.9 12.1 359 25.5
2011-07-26 07:29:31 51°22.37 2°52.573 358.6 12.3 359 25.3
2011-07-26 07:29:36 51°22.387 2°52.572 358.2 12.3 358 24.8
2011-07-26 07:29:41 51°22.404 2°52.571 357.5 12.3 358 25.5
2011-07-26 07:29:45 51°22.418 2°52.571 357.3 12.5 359 25.1
2011-07-26 07:29:50 51°22.435 2°52.571 358 12.5 -999 25.3
2011-07-26 07:29:56 51°22.456 2°52.57 358.6 12.4 -999 24.4
2011-07-26 07:30:01 51°22.473 2°52.57 358.4 12.5 -999 24.7
2011-07-26 07:30:05 51°22.487 2°52.57 358.5 12.6 -999 25.1
2011-07-26 07:30:09 51°22.501 2°52.57 358.5 12.6 -999 24.6
2011-07-26 07:30:15 51°22.522 2°52.57 358.5 12.4 -999 24.4
2011-07-26 07:30:21 51°22.543 2°52.57 358.4 12.6 -999 24.6
2011-07-26 07:30:25 51°22.557 2°52.57 358.5 12.4 1 24.5
2011-07-26 07:30:31 51°22.577 2°52.57 358.7 12.5 -999 25
2011-07-26 07:30:36 51°22.595 2°52.571 359 12.6 -999 25.3
2011-07-26 07:30:41 51°22.612 2°52.571 359.1 12.4 -999 24.2
2011-07-26 07:30:45 51°22.626 2°52.571 359 12.3 -999 24.3
2011-07-26 07:30:51 51°22.646 2°52.571 358.6 12.4 -999 24.4
2011-07-26 07:30:56 51°22.664 2°52.571 358.5 12.5 359 24.5
2011-07-26 07:31:01 51°22.681 2°52.57 358.1 12.5 359 24.7
2011-07-26 07:31:05 51°22.695 2°52.569 357.6 12.6 358 23.9
2011-07-26 07:31:11 51°22.716 2°52.568 357 12.7 358 23.5
2011-07-26 07:31:16 51°22.734 2°52.568 357.1 12.6 358 24.3
2011-07-26 07:31:21 51°22.751 2°52.567 357.4 12.6 358 24.6
2011-07-26 07:31:25 51°22.765 2°52.566 357.1 12.6 358 24.7
2011-07-26 07:31:31 51°22.786 2°52.565 357.2 12.7 359 25.1
2011-07-26 07:31:36 51°22.804 2°52.565 357.9 12.7 -999 25.4
2011-07-26 07:31:41 51°22.821 2°52.566 358.7 12.7 1 25.5
2011-07-26 07:31:45 51°22.835 2°52.566 359.4 12.5 2 25
2011-07-26 07:31:50 51°22.853 2°52.568 0.4 12.5 3 24.9
2011-07-26 07:31:56 51°22.874 2°52.569 1.2 12.6 3 24.9
2011-07-26 07:32:01 51°22.891 2°52.571 1.7 12.5 3 24.8
2011-07-26 07:32:05 51°22.905 2°52.571 1.4 12.6 3 25.4
2011-07-26 07:32:10 51°22.922 2°52.573 1.6 12.7 2 25
2011-07-26 07:32:16 51°22.944 2°52.574 1 12.7 2 24.8
2011-07-26 07:32:21 51°22.961 2°52.575 0.8 12.5 2 23.9
2011-07-26 07:32:25 51°22.975 2°52.576 0.9 12.6 2 24.9
2011-07-26 07:32:30 51°22.992 2°52.577 1 12.4 3 23.5
2011-07-26 07:32:36 51°23.012 2°52.579 1.4 12.1 3 23.7
2011-07-26 07:32:41 51°23.029 2°52.58 1.5 12.1 3 22.7
2011-07-26 07:32:45 51°23.042 2°52.581 1.2 12.2 3 25.2
2011-07-26 07:32:50 51°23.059 2°52.583 1.3 12.3 3 24.9
2011-07-26 07:32:56 51°23.08 2°52.584 1.5 12.5 3 25.1
2011-07-26 07:33:01 51°23.097 2°52.586 1.5 12.5 3 25.3
2011-07-26 07:33:05 51°23.111 2°52.587 1.2 12.6 2 24.5
2011-07-26 07:33:11 51°23.132 2°52.587 0.4 12.4 1 23.8
2011-07-26 07:33:15 51°23.146 2°52.588 0.1 12.5 1 24.3
2011-07-26 07:33:21 51°23.167 2°52.588 359.8 12.6 -999 24.4
2011-07-26 07:33:25 51°23.18 2°52.588 358.9 12.6 -999 23.8
2011-07-26 07:33:31 51°23.201 2°52.587 357.9 12.3 359 23.3
2011-07-26 07:33:36 51°23.218 2°52.586 357.2 12.2 359 23.3
2011-07-26 07:33:41 51°23.235 2°52.585 357.2 12.3 358 23.4
2011-07-26 07:33:45 51°23.249 2°52.585 357 12.4 358 22.7
2011-07-26 07:33:51 51°23.27 2°52.584 357 12.4 358 21.3
2011-07-26 07:33:56 51°23.287 2°52.583 356.6 12.5 358 23.4
2011-07-26 07:34:01 51°23.304 2°52.582 356.7 12.4 359 22.9
2011-07-26 07:34:05 51°23.318 2°52.582 357.2 12.5 359 22.7
2011-07-26 07:34:10 51°23.335 2°52.581 357.5 12.5 -999 22.9
2011-07-26 07:34:16 51°23.356 2°52.581 358.1 12.6 -999 22.7
2011-07-26 07:34:21 51°23.374 2°52.581 358.7 12.7 -999 22.6
2011-07-26 07:34:25 51°23.388 2°52.581 358.9 12.5 -999 22.6
2011-07-26 07:34:30 51°23.405 2°52.582 359.1 12.6 -999 22.6
2011-07-26 07:34:36 51°23.426 2°52.581 359.1 12.6 359 23.2
2011-07-26 07:34:41 51°23.444 2°52.581 358.7 12.6 -999 22.9
2011-07-26 07:34:45 51°23.457 2°52.581 358.4 12.6 359 22
2011-07-26 07:34:50 51°23.475 2°52.58 357.9 12.5 359 22.3
2011-07-26 07:34:55 51°23.492 2°52.58 358.3 12.5 359 22.7
2011-07-26 07:35:01 51°23.513 2°52.58 358.2 12.4 -999 22.3
2011-07-26 07:35:05 51°23.527 2°52.58 358.7 12.6 -999 22.7
2011-07-26 07:35:10 51°23.545 2°52.58 359 12.5 1 21.8
2011-07-26 07:35:16 51°23.565 2°52.58 359.3 12.3 -999 20.8
2011-07-26 07:35:21 51°23.582 2°52.581 359.6 12.4 2 21.8
2011-07-26 07:35:25 51°23.596 2°52.581 0.1 12.4 1 21.5
2011-07-26 07:35:31 51°23.616 2°52.583 0.7 12.2 3 20.5
2011-07-26 07:35:36 51°23.633 2°52.584 1.5 12.2 2 21.1
2011-07-26 07:35:41 51°23.65 2°52.585 0.9 12.2 2 20.4
2011-07-26 07:35:45 51°23.664 2°52.586 1.1 12.2 3 20.3
2011-07-26 07:35:51 51°23.684 2°52.587 1.1 12.2 1 20.4
2011-07-26 07:35:55 51°23.698 2°52.588 1.5 12.3 3 19.6
2011-07-26 07:36:01 51°23.718 2°52.589 1.4 12.3 1 19
2011-07-26 07:36:05 51°23.732 2°52.591 1.5 12.4 3 19.4
2011-07-26 07:36:10 51°23.749 2°52.591 1.5 12.4 -999 19.6
2011-07-26 07:36:16 51°23.77 2°52.592 0.9 12.5 2 19.9
2011-07-26 07:36:21 51°23.787 2°52.593 0.8 12.4 1 19.6
2011-07-26 07:36:25 51°23.801 2°52.593 0.2 12.4 -999 19.2
2011-07-26 07:36:30 51°23.818 2°52.593 359.5 12.2 -999 18.8
2011-07-26 07:36:36 51°23.838 2°52.592 358.6 12.3 358 17.9
2011-07-26 07:36:41 51°23.856 2°52.59 357.4 12.3 358 18.7
2011-07-26 07:36:45 51°23.869 2°52.59 357.4 12.4 359 19
2011-07-26 07:36:50 51°23.886 2°52.588 356.8 12.4 357 19.3
2011-07-26 07:36:55 51°23.904 2°52.588 357.1 12.2 359 18.6
2011-07-26 07:37:01 51°23.924 2°52.586 356.9 12.2 357 18.9
2011-07-26 07:37:05 51°23.937 2°52.585 356.8 12.4 357 18.3
2011-07-26 07:37:10 51°23.955 2°52.584 357.2 12.3 358 18.2
2011-07-26 07:37:16 51°23.974 2°52.583 357.5 11.7 -999 -999
2011-07-26 07:37:21 51°23.99 2°52.583 358.8 11.5 1 19.9
2011-07-26 07:37:26 51°24.006 2°52.584 359.9 11.7 1 19.3
2011-07-26 07:37:31 51°24.022 2°52.585 359.8 11.9 2 20.1
2011-07-26 07:37:36 51°24.039 2°52.585 0.8 11.7 2 20
2011-07-26 07:37:41 51°24.056 2°52.587 1.3 11.9 3 19.4
2011-07-26 07:37:46 51°24.072 2°52.589 2.1 12 4 19.9
2011-07-26 07:37:50 51°24.085 2°52.59 2.6 12.1 3 19
2011-07-26 07:37:56 51°24.106 2°52.592 2.7 12.3 4 18.2
2011-07-26 07:38:01 51°24.123 2°52.593 2.9 12.3 3 18.9
2011-07-26 07:38:05 51°24.137 2°52.595 3 12.3 4 18.6
2011-07-26 07:38:11 51°24.157 2°52.597 3.2 12.2 4 19.9
2011-07-26 07:38:15 51°24.17 2°52.598 3.7 12.2 4 21
2011-07-26 07:38:21 51°24.191 2°52.601 3.9 12.3 4 21.3
2011-07-26 07:38:25 51°24.204 2°52.602 3.3 12.3 3 21.2
2011-07-26 07:38:30 51°24.221 2°52.603 2.3 12.3 3 21.2
2011-07-26 07:38:36 51°24.242 2°52.604 2.2 12.2 2 20.5
2011-07-26 07:38:41 51°24.259 2°52.604 1.3 12.1 -999 19.9
2011-07-26 07:38:45 51°24.272 2°52.604 0.4 12.2 -999 19.3
2011-07-26 07:38:50 51°24.29 2°52.604 0.1 12.4 -999 19.8
2011-07-26 07:38:56 51°24.31 2°52.604 0.1 12.3 -999 20.3
2011-07-26 07:39:01 51°24.327 2°52.604 0.2 12.3 -999 20.9
2011-07-26 07:39:05 51°24.341 2°52.605 0.3 12.4 1 20.9
2011-07-26 07:39:10 51°24.358 2°52.604 0.1 12.3 -999 20.8
2011-07-26 07:39:15 51°24.375 2°52.604 0.1 12.4 -999 21
2011-07-26 07:39:21 51°24.395 2°52.605 0.1 12.3 1 21
2011-07-26 07:39:25 51°24.409 2°52.605 0.1 12.2 -999 20.3
2011-07-26 07:39:31 51°24.429 2°52.605 0.1 12.3 1 20.1
2011-07-26 07:39:35 51°24.443 2°52.605 0.5 12.3 1 20.9
2011-07-26 07:39:41 51°24.464 2°52.605 0.7 12.4 1 22.2
2011-07-26 07:39:45 51°24.477 2°52.606 0.8 12.2 2 21.8
2011-07-26 07:39:51 51°24.498 2°52.607 1.6 12.1 2 22.3
2011-07-26 07:39:55 51°24.511 2°52.607 1.8 12.2 2 22.5
2011-07-26 07:40:01 51°24.532 2°52.608 2.3 12.3 2 23
2011-07-26 07:40:05 51°24.545 2°52.609 2.5 12.4 3 22.6
2011-07-26 07:40:11 51°24.566 2°52.611 2.7 12.3 3 20.7
2011-07-26 07:40:15 51°24.579 2°52.612 2.9 12.3 3 20.9
2011-07-26 07:40:21 51°24.599 2°52.614 3.1 12.2 3 20.9
2011-07-26 07:40:25 51°24.612 2°52.615 3.2 12.2 3 21.8
2011-07-26 07:40:30 51°24.629 2°52.617 3.3 12.1 3 21.1
2011-07-26 07:40:36 51°24.65 2°52.618 3 12.2 2 22.1
2011-07-26 07:40:41 51°24.666 2°52.619 2.6 12.2 1 20.5
2011-07-26 07:40:45 51°24.68 2°52.619 2.2 12.1 2 21.7
2011-07-26 07:40:50 51°24.697 2°52.62 1.8 12.2 1 22.2
2011-07-26 07:40:56 51°24.717 2°52.62 1.8 12.2 1 22.4
2011-07-26 07:41:01 51°24.734 2°52.62 1.5 12.3 1 22.8
2011-07-26 07:41:05 51°24.748 2°52.62 1.1 11.9 -999 21.9
2011-07-26 07:41:10 51°24.764 2°52.621 1 11.8 1 22.8
2011-07-26 07:41:16 51°24.784 2°52.621 1.2 11.9 -999 23.7
2011-07-26 07:41:21 51°24.8 2°52.622 0.9 11.9 -999 23.6
2011-07-26 07:41:25 51°24.813 2°52.622 0.7 12 -999 23.7
2011-07-26 07:41:30 51°24.83 2°52.621 0.5 12 359 23.6
2011-07-26 07:41:35 51°24.847 2°52.621 -999 11.9 359 23.6
2011-07-26 07:41:41 51°24.867 2°52.62 359.6 12 359 24.2
2011-07-26 07:41:45 51°24.881 2°52.62 359.4 12.2 358 23.3
2011-07-26 07:41:51 51°24.901 2°52.619 359 12.1 359 22.8
2011-07-26 07:41:55 51°24.914 2°52.618 359.2 12.1 359 23
2011-07-26 07:42:01 51°24.935 2°52.618 359.5 12.2 359 23.7
2011-07-26 07:42:05 51°24.948 2°52.618 0.1 12.3 -999 23.8
2011-07-26 07:42:11 51°24.969 2°52.618 0.6 12.3 2 23.6
2011-07-26 07:42:15 51°24.982 2°52.619 1.1 12.2 1 24.2
2011-07-26 07:42:21 51°25.003 2°52.62 1.9 12.4 2 24.8
2011-07-26 07:42:25 51°25.017 2°52.62 2.7 12.3 2 24.5
2011-07-26 07:42:31 51°25.037 2°52.623 3.2 12.4 4 24.6
2011-07-26 07:42:36 51°25.054 2°52.624 3.7 12.5 3 25.1
2011-07-26 07:42:41 51°25.072 2°52.626 3.8 12.5 3 24.9
2011-07-26 07:42:45 51°25.085 2°52.627 3.7 12.3 3 24.5
2011-07-26 07:42:50 51°25.103 2°52.628 3.4 12.4 2 24.8
2011-07-26 07:42:56 51°25.123 2°52.63 2.8 12.5 1 25.2
2011-07-26 07:43:01 51°25.141 2°52.63 1.6 12.5 1 25.3
2011-07-26 07:43:05 51°25.154 2°52.63 1.3 12.5 -999 25.2
2011-07-26 07:43:10 51°25.172 2°52.63 0.6 12.5 359 24.6
2011-07-26 07:43:16 51°25.192 2°52.63 359.8 12.4 -999 24.4
2011-07-26 07:43:21 51°25.21 2°52.629 359.4 12.4 359 24.5
2011-07-26 07:43:25 51°25.224 2°52.629 359.3 12.4 359 24.6
2011-07-26 07:43:30 51°25.241 2°52.628 359.1 12.4 358 25.3
2011-07-26 07:43:36 51°25.261 2°52.626 358.4 12.5 358 25.3
2011-07-26 07:43:41 51°25.279 2°52.625 357.7 12.5 356 24.7
2011-07-26 07:43:45 51°25.292 2°52.624 357.2 12.3 357 24.7
2011-07-26 07:43:50 51°25.309 2°52.622 356.8 12.3 356 25.1
2011-07-26 07:43:56 51°25.33 2°52.62 356.6 12.3 356 25.3
2011-07-26 07:44:01 51°25.347 2°52.618 356.4 12.4 356 25.6
2011-07-26 07:44:05 51°25.361 2°52.617 356.9 12.4 357 25.1
2011-07-26 07:44:10 51°25.378 2°52.616 357.3 12.5 357 25.5
2011-07-26 07:44:15 51°25.395 2°52.615 357.4 12.4 358 25
2011-07-26 07:44:21 51°25.416 2°52.613 357.5 12.3 358 25.3
2011-07-26 07:44:25 51°25.43 2°52.613 357.7 12.3 357 25.8
2011-07-26 07:44:31 51°25.45 2°52.611 357.2 12.3 357 25.9
2011-07-26 07:44:35 51°25.464 2°52.61 357.2 12.5 358 26.7
2011-07-26 07:44:41 51°25.484 2°52.609 357.6 12.4 358 26.5
2011-07-26 07:44:45 51°25.498 2°52.609 358.3 12.4 359 26.1
2011-07-26 07:44:51 51°25.518 2°52.609 359.2 12.3 -999 26.3
2011-07-26 07:44:55 51°25.532 2°52.609 0.1 12.4 -999 26.6
2011-07-26 07:45:01 51°25.553 2°52.609 0.6 12.4 1 26.3
2011-07-26 07:45:05 51°25.567 2°52.609 0.8 12.5 1 26.5
2011-07-26 07:45:11 51°25.587 2°52.609 0.8 12.6 -999 26.7
2011-07-26 07:45:16 51°25.605 2°52.609 0.4 12.5 -999 26.3
2011-07-26 07:45:21 51°25.622 2°52.61 0.7 12.6 -999 26.9
2011-07-26 07:45:25 51°25.636 2°52.61 0.8 12.6 1 27.4
2011-07-26 07:45:30 51°25.653 2°52.61 0.9 12.4 1 27.4
2011-07-26 07:45:36 51°25.674 2°52.611 1.1 12.6 1 28.4
2011-07-26 07:45:41 51°25.691 2°52.612 1.3 12.4 2 28.9
2011-07-26 07:45:45 51°25.705 2°52.612 1.6 12.5 1 28.7
2011-07-26 07:45:50 51°25.722 2°52.612 1.5 12.6 1 28.9
2011-07-26 07:45:55 51°25.74 2°52.613 1.5 12.5 -999 28.9
2011-07-26 07:46:01 51°25.761 2°52.612 0.8 12.1 -999 28.1
2011-07-26 07:46:05 51°25.774 2°52.613 0.4 11.9 -999 29.1
2011-07-26 07:46:10 51°25.791 2°52.612 0.2 12 -999 29.5
2011-07-26 07:46:15 51°25.808 2°52.612 -999 12.1 359 29.1
2011-07-26 07:46:21 51°25.828 2°52.611 359.4 12.3 359 29.4
2011-07-26 07:46:25 51°25.841 2°52.61 358.6 12.3 357 29.6
2011-07-26 07:46:30 51°25.858 2°52.609 358.5 12.2 357 29.8
2011-07-26 07:46:35 51°25.875 2°52.608 357.5 12.2 357 29.2
2011-07-26 07:46:41 51°25.895 2°52.605 357 12.4 356 29.6
2011-07-26 07:46:45 51°25.909 2°52.604 356.2 12.4 356 29.2
2011-07-26 07:46:51 51°25.929 2°52.602 356 12.1 356 28.9
2011-07-26 07:46:55 51°25.943 2°52.6 355.7 12.3 355 29.2
2011-07-26 07:47:01 51°25.963 2°52.597 355.7 12.3 355 29.2
2011-07-26 07:47:05 51°25.977 2°52.595 355.2 12.5 355 29.6
2011-07-26 07:47:11 51°25.997 2°52.592 355.1 12.5 354 29.5
2011-07-26 07:47:15 51°26.011 2°52.59 354.7 12.4 355 30.1
2011-07-26 07:47:21 51°26.031 2°52.587 355.2 12.6 355 30.8
2011-07-26 07:47:25 51°26.045 2°52.584 355.6 12.5 355 30.3
2011-07-26 07:47:30 51°26.062 2°52.583 355.7 12.4 355 29.5
2011-07-26 07:47:36 51°26.083 2°52.58 355.6 12.5 355 29.3
2011-07-26 07:47:41 51°26.1 2°52.578 356 12.6 356 29.4
2011-07-26 07:47:45 51°26.114 2°52.577 356.1 12.6 356 29.9
2011-07-26 07:47:50 51°26.131 2°52.575 356.5 12.5 358 29.9
2011-07-26 07:47:56 51°26.152 2°52.574 357.3 12.7 357 30.5
2011-07-26 07:48:01 51°26.169 2°52.573 357.8 12.6 358 30.3
2011-07-26 07:48:05 51°26.183 2°52.572 357.7 12.4 357 29.7
2011-07-26 07:48:10 51°26.2 2°52.57 357.8 12.4 357 30
2011-07-26 07:48:15 51°26.217 2°52.568 357.9 12.6 357 30.3
2011-07-26 07:48:21 51°26.238 2°52.567 358.2 12.4 357 29.4
2011-07-26 07:48:25 51°26.252 2°52.566 357.9 12.3 358 29.4
2011-07-26 07:48:31 51°26.272 2°52.565 358.4 12.2 358 28.4
2011-07-26 07:48:35 51°26.286 2°52.564 358.5 12.2 358 28.4
2011-07-26 07:48:41 51°26.306 2°52.563 358.2 12.2 357 28.7
2011-07-26 07:48:45 51°26.32 2°52.562 358.2 12.2 358 29.2
2011-07-26 07:48:51 51°26.34 2°52.56 357.8 12.4 357 29.2
2011-07-26 07:48:55 51°26.354 2°52.558 357.4 12.5 357 29.3
2011-07-26 07:49:01 51°26.375 2°52.556 357.2 12.3 356 28.4
2011-07-26 07:49:05 51°26.388 2°52.554 356.9 12.4 356 28.8
2011-07-26 07:49:11 51°26.409 2°52.552 356.5 12.3 356 29.3
2011-07-26 07:49:15 51°26.423 2°52.55 356.4 12.4 356 29.7
2011-07-26 07:49:21 51°26.443 2°52.548 356 12.5 356 30.3
2011-07-26 07:49:25 51°26.457 2°52.546 356.5 12.3 356 29.7
2011-07-26 07:49:30 51°26.474 2°52.544 356.4 12.3 355 29.9
2011-07-26 07:49:36 51°26.495 2°52.542 356.3 12.4 356 30.1
2011-07-26 07:49:41 51°26.512 2°52.54 356.3 12.4 356 29.6
2011-07-26 07:49:45 51°26.526 2°52.538 356.2 12.5 356 29.7
2011-07-26 07:49:50 51°26.543 2°52.536 356.5 12.6 355 30.1
2011-07-26 07:49:56 51°26.563 2°52.533 356.5 12.4 356 29.2
2011-07-26 07:50:01 51°26.58 2°52.531 356.2 12.3 356 28.7
2011-07-26 07:50:05 51°26.593 2°52.53 356.3 12.3 356 28.9
2011-07-26 07:50:10 51°26.61 2°52.529 356.7 12.2 357 29.6
2011-07-26 07:50:16 51°26.63 2°52.527 357.2 12.1 357 30.7
2011-07-26 07:50:21 51°26.647 2°52.527 358 12 -999 30.1
2011-07-26 07:50:26 51°26.664 2°52.526 358.9 12 358 30.3
2011-07-26 07:50:31 51°26.68 2°52.526 359.2 12 -999 29.6
2011-07-26 07:50:36 51°26.697 2°52.525 359.7 12.1 -999 29.3
2011-07-26 07:50:41 51°26.714 2°52.526 0.8 12.2 -999 29.5
2011-07-26 07:50:45 51°26.728 2°52.527 1.4 12.4 1 29.9
2011-07-26 07:50:51 51°26.749 2°52.527 1.7 12.4 1 29.6
2011-07-26 07:50:56 51°26.766 2°52.528 1.9 12.3 2 28.9
2011-07-26 07:51:01 51°26.783 2°52.529 2.6 12.3 3 28.7
2011-07-26 07:51:05 51°26.797 2°52.53 2.8 12.2 2 29.2
2011-07-26 07:51:11 51°26.817 2°52.532 3 12.4 3 29.1
2011-07-26 07:51:16 51°26.834 2°52.533 3.2 12.3 2 28.7
2011-07-26 07:51:21 51°26.851 2°52.533 2.6 12.3 3 28.6
2011-07-26 07:51:25 51°26.865 2°52.534 2.6 12.4 1 28.9
2011-07-26 07:51:31 51°26.886 2°52.536 2.1 12.4 3 29.1
2011-07-26 07:51:36 51°26.903 2°52.537 2.3 12.4 3 29.3
2011-07-26 07:51:41 51°26.919 2°52.539 2.5 12.1 3 28.1
2011-07-26 07:51:45 51°26.933 2°52.54 2.9 12.2 3 29.1
2011-07-26 07:51:51 51°26.953 2°52.541 2.9 12.2 3 28.5
2011-07-26 07:51:56 51°26.97 2°52.542 2.8 12.3 2 27.7
2011-07-26 07:52:01 51°26.987 2°52.543 2.1 12.3 1 27.6
2011-07-26 07:52:05 51°27.001 2°52.543 0.8 12.4 359 28.7
2011-07-26 07:52:10 51°27.018 2°52.542 -999 12.1 359 27.7
2011-07-26 07:52:16 51°27.038 2°52.542 359.2 12.3 359 27.9
2011-07-26 07:52:21 51°27.055 2°52.54 358.6 12.2 356 26.8
2011-07-26 07:52:25 51°27.069 2°52.538 357.4 12.3 357 23.6
2011-07-26 07:52:30 51°27.086 2°52.536 356.7 12.4 355 24.5
2011-07-26 07:52:35 51°27.103 2°52.533 356.1 12.4 355 24.1
2011-07-26 07:52:41 51°27.123 2°52.531 355.8 12.4 355 23
2011-07-26 07:52:45 51°27.137 2°52.529 355.6 12 355 21.8
2011-07-26 07:52:50 51°27.154 2°52.527 355.7 11.9 356 24.2
2011-07-26 07:52:55 51°27.17 2°52.525 355.8 11.9 354 24.3
2011-07-26 07:53:01 51°27.19 2°52.523 355.7 11.9 356 24
2011-07-26 07:53:05 51°27.203 2°52.521 355.7 12 356 22.7
2011-07-26 07:53:10 51°27.22 2°52.519 356.3 12.2 356 23.1
2011-07-26 07:53:16 51°27.241 2°52.517 356.8 12.1 357 22.1
2011-07-26 07:53:21 51°27.257 2°52.515 357.1 12.1 356 20.4
2011-07-26 07:53:25 51°27.271 2°52.515 357.3 12 358 22.4
2011-07-26 07:53:31 51°27.291 2°52.513 357.9 12 358 23.5
2011-07-26 07:53:35 51°27.304 2°52.513 358.4 12.2 359 23.2
2011-07-26 07:53:41 51°27.325 2°52.511 358.7 12.3 357 23
2011-07-26 07:53:45 51°27.338 2°52.511 358.4 12.2 358 22.7
2011-07-26 07:53:51 51°27.359 2°52.509 358.4 12.2 358 22.1
2011-07-26 07:53:56 51°27.375 2°52.508 357.9 12.1 358 20.9
2011-07-26 07:54:01 51°27.393 2°52.508 358.7 12.2 359 23.1
2011-07-26 07:54:05 51°27.406 2°52.507 358.6 12.3 358 24.4
2011-07-26 07:54:10 51°27.423 2°52.506 358.6 12.3 358 24.7
2011-07-26 07:54:16 51°27.443 2°52.504 359.3 12.2 357 24.8
2011-07-26 07:54:21 51°27.46 2°52.504 358.6 12.3 359 25.1
2011-07-26 07:54:25 51°27.474 2°52.503 358.7 12.3 357 24.7
2011-07-26 07:54:30 51°27.491 2°52.502 358.6 12.4 359 24
2011-07-26 07:54:36 51°27.512 2°52.501 359 12.4 358 24.4
2011-07-26 07:54:41 51°27.528 2°52.5 359.2 12.4 359 23.9
2011-07-26 07:54:45 51°27.542 2°52.499 359.2 12.5 358 24.1
2011-07-26 07:54:50 51°27.559 2°52.498 359.1 12.5 358 23.7
2011-07-26 07:54:56 51°27.58 2°52.497 359.2 12.5 358 23.4
2011-07-26 07:55:01 51°27.597 2°52.496 358.8 12.5 359 22.3
2011-07-26 07:55:05 51°27.611 2°52.495 358.9 12.4 357 22.3
2011-07-26 07:55:10 51°27.628 2°52.494 358.8 12.4 359 22.3
2011-07-26 07:55:15 51°27.645 2°52.494 359.5 12.5 358 22.2
2011-07-26 07:55:21 51°27.666 2°52.493 359.4 12.4 359 21.5
2011-07-26 07:55:25 51°27.68 2°52.493 359.7 12.3 359 20.8
2011-07-26 07:55:30 51°27.697 2°52.492 359.3 12.3 359 20.2
2011-07-26 07:55:36 51°27.717 2°52.492 359.4 12.4 359 20.9
2011-07-26 07:55:41 51°27.735 2°52.491 359 12.4 358 21.2
2011-07-26 07:55:45 51°27.748 2°52.491 359 12.4 -999 22
2011-07-26 07:55:51 51°27.769 2°52.49 358.9 12.4 359 22.2
2011-07-26 07:55:56 51°27.786 2°52.489 359.2 12.5 359 23.4
2011-07-26 07:56:01 51°27.803 2°52.489 358.9 12.3 359 24.2
2011-07-26 07:56:05 51°27.817 2°52.488 358.6 12.1 358 23.4
2011-07-26 07:56:11 51°27.837 2°52.486 358.6 12.3 357 23
2011-07-26 07:56:16 51°27.854 2°52.485 357.9 12.4 357 23.1
2011-07-26 07:56:21 51°27.872 2°52.483 357.6 12.4 356 23
2011-07-26 07:56:25 51°27.885 2°52.482 357.2 12.4 357 23.9
2011-07-26 07:56:30 51°27.902 2°52.48 357.1 12.4 356 24.3
2011-07-26 07:56:36 51°27.923 2°52.479 357.2 12.5 357 24.3